Wuhan, China

7:03 PM CST on January 18, 2017 (GMT +0800)
Tianhe | | Change Station

Elev 75 ft 30.62 °N, 114.13 °E | Updated 1 hour ago

Haze
Haze
45 °F
Feels Like 41 °F
N
7
Wind Variable Wind from ENE

Today
High -- | Low -- °F
--% Chance of Precip.
Yesterday
High -- | Low -- °F
Precip. -- in
Pressure 30.30 in
Visibility 2.5 miles
Clouds
Windchill 41 °F
Dew Point 37 °F
Humidity 76%
Rainfall 0.00 in
Snow Depth Not available.
7:20 AM 5:47 PM
Waning Gibbous, 64% visible
METAR ZHHH 181000Z 06003MPS 4000 HZ NSC 07/03 Q1026 NOSIG
Pressure 30.30 in
Visibility 2.5 miles
Clouds
Windchill 41 °F
Dew Point 37 °F
Humidity 76%
Rainfall 0.00 in
Snow Depth Not available.
7:20 AM 5:47 PM
Waning Gibbous, 64% visible
METAR ZHHH 181000Z 06003MPS 4000 HZ NSC 07/03 Q1026 NOSIG

Get Your Daily Forecast Email!

Thanks for signing up!

Be on the lookout for a verification email in your inbox.

You'll start receiving the daily forecast at 8 AM.

×

10-Day Weather Forecast

No radar image for this location.
×

Almanac

Astronomy

Jan. 18, 2017 Rise Set
Actual Time
Civil Twilight
Nautical Twilight
Astronomical Twilight
Moon
Length of Visible Light
Length of Day
Tomorrow will be .
, % of the Moon is Illuminated

Today's Extremes

Country Highs Country Lows

Community

WunderPhotos

Upload Photos

1,962,540 photos uploaded!

WunderBlog® & News

Nearby

Air Quality

  Air Quality AQ Index Pollutant
Not available.

Snow Depth

Station Depth Elevation

Earthquake Activity

City Distance Mag. Time & Date
Minimum magnitude displayed is 2.5.

Coastal Water Temperatures

Place Temperature

Stations

Nearby Weather Stations

Station Location Temp. Windchill Dew Point Humidity Wind Precip. Elev Updated Type